createdAt,value
2023-04-05T00:04:06.119Z,99150.36
2023-04-05T00:14:13.165Z,99134.95
2023-04-05T00:24:20.865Z,99120.70
2023-04-05T00:34:27.923Z,99109.64
2023-04-05T00:44:36.205Z,99104.65
2023-04-05T00:54:43.894Z,99094.70
2023-04-05T01:05:01.152Z,99092.20
2023-04-05T01:15:10.793Z,99078.91
2023-04-05T01:25:24.117Z,99071.55
2023-04-05T01:35:29.896Z,99061.87
2023-04-05T01:45:37.157Z,99058.40
2023-04-05T01:55:44.331Z,99063.77
2023-04-05T02:05:51.861Z,99062.16
2023-04-05T02:15:59.000Z,99053.70
2023-04-05T02:26:05.800Z,99054.42
2023-04-05T02:36:13.526Z,99052.85
2023-04-05T02:46:20.982Z,99043.08
2023-04-05T02:56:28.107Z,99052.12
2023-04-05T03:06:35.404Z,99047.32
2023-04-05T03:16:43.026Z,99040.66
2023-04-05T03:26:51.769Z,99041.18
2023-04-05T03:36:59.127Z,99042.23
2023-04-05T03:47:06.352Z,99044.06
2023-04-05T03:57:13.440Z,99043.67
2023-04-05T04:07:19.102Z,99048.37
2023-04-05T04:17:34.993Z,99045.95
2023-04-05T04:27:43.905Z,99046.95
2023-04-05T04:37:53.093Z,99047.98
2023-04-05T04:48:00.184Z,99056.23
2023-04-05T04:58:10.408Z,99054.38
2023-04-05T05:08:21.117Z,99057.63
2023-04-05T05:18:27.530Z,99061.84
2023-04-05T05:28:34.787Z,99063.15
2023-04-05T05:38:43.302Z,99065.71
2023-04-05T05:48:50.798Z,99067.22
2023-04-05T05:58:59.618Z,99057.65
2023-04-05T06:09:06.738Z,99048.66
2023-04-05T06:19:13.973Z,99049.67
2023-04-05T06:29:20.146Z,99048.61
2023-04-05T06:39:27.224Z,99052.17
2023-04-05T06:49:34.510Z,99055.31
2023-04-05T06:59:42.114Z,99057.23
2023-04-05T07:09:49.096Z,99065.35
2023-04-05T07:19:56.559Z,99069.41
2023-04-05T07:30:03.734Z,99068.94
2023-04-05T07:40:12.688Z,99072.80
2023-04-05T07:50:20.091Z,99068.04
2023-04-05T08:00:24.792Z,99068.24
2023-04-05T08:10:32.095Z,99063.23
2023-04-05T08:20:41.704Z,99068.83
2023-04-05T08:30:49.367Z,99077.98
2023-04-05T08:40:56.497Z,99067.85
2023-04-05T08:51:03.962Z,99076.52
2023-04-05T09:01:11.663Z,99072.86
2023-04-05T09:11:20.119Z,99067.19
2023-04-05T09:21:29.533Z,99067.60
2023-04-05T09:31:34.346Z,99064.41
2023-04-05T09:41:42.057Z,99061.54
2023-04-05T09:51:50.150Z,99059.54
2023-04-05T10:01:57.268Z,99056.85
2023-04-05T10:12:05.099Z,99049.34
2023-04-05T10:22:15.134Z,99045.71
2023-04-05T10:32:29.064Z,99040.64
2023-04-05T10:42:41.187Z,99039.75
2023-04-05T10:52:49.816Z,99022.02
2023-04-05T11:02:55.156Z,99014.61
2023-04-05T11:13:17.866Z,99008.04
2023-04-05T11:23:27.253Z,99002.01
2023-04-05T11:33:41.084Z,99008.19
2023-04-05T11:43:47.849Z,99004.90
2023-04-05T11:53:55.028Z,99006.95
2023-04-05T12:04:02.262Z,98997.33
2023-04-05T12:14:09.711Z,98998.84
2023-04-05T12:24:17.172Z,99003.34
2023-04-05T12:34:27.737Z,98995.85
2023-04-05T12:44:36.783Z,98987.41
2023-04-05T12:54:42.523Z,98976.52
2023-04-05T13:04:51.273Z,98972.25
2023-04-05T13:14:58.307Z,98983.34
2023-04-05T13:25:06.049Z,98985.75
2023-04-05T13:35:11.548Z,98977.33
2023-04-05T13:45:18.595Z,98974.81
2023-04-05T13:55:25.667Z,98971.73
2023-04-05T14:05:32.797Z,98976.22
2023-04-05T14:15:40.518Z,98975.91
2023-04-05T14:25:47.825Z,98967.95
2023-04-05T14:35:55.116Z,98968.42
2023-04-05T14:46:02.595Z,98970.23
2023-04-05T14:56:10.131Z,98968.09
2023-04-05T15:06:16.680Z,98972.48
2023-04-05T15:16:26.007Z,98973.73
2023-04-05T15:26:33.464Z,98979.90
2023-04-05T15:36:40.853Z,98969.21
2023-04-05T15:46:48.476Z,98973.77
2023-04-05T15:56:56.926Z,98976.23
2023-04-05T16:07:04.450Z,98977.77
2023-04-05T16:17:12.206Z,98977.22
2023-04-05T16:27:19.829Z,98982.05
2023-04-05T16:37:26.987Z,98980.19
2023-04-05T16:47:33.208Z,98979.70
2023-04-05T16:57:40.557Z,98986.03
2023-04-05T17:07:47.414Z,98990.70
2023-04-05T17:17:54.497Z,98992.80
2023-04-05T17:28:03.297Z,98996.77
2023-04-05T17:38:10.926Z,99002.83
2023-04-05T17:48:19.209Z,99016.20
2023-04-05T17:58:29.104Z,99026.00
2023-04-05T18:08:36.597Z,99038.64
2023-04-05T18:18:43.825Z,99034.43
2023-04-05T18:39:03.950Z,99052.63
2023-04-05T18:49:11.650Z,99063.83
2023-04-05T18:59:18.876Z,99073.23
2023-04-05T19:09:25.631Z,99070.21
2023-04-05T19:19:32.889Z,99070.52
2023-04-05T19:29:40.773Z,99071.42
2023-04-05T19:39:48.533Z,99067.77
2023-04-05T19:49:56.285Z,99066.05
2023-04-05T20:00:03.704Z,99065.41
2023-04-05T20:10:15.588Z,99062.69
2023-04-05T20:20:21.965Z,99064.58
2023-04-05T20:30:29.062Z,99062.34
2023-04-05T20:40:36.403Z,99063.64
2023-04-05T20:50:42.232Z,99059.08
2023-04-05T21:00:49.546Z,99061.38
2023-04-05T21:10:57.185Z,99065.44
2023-04-05T21:21:04.460Z,99062.35
2023-04-05T21:31:11.207Z,99065.42
2023-04-05T21:41:18.410Z,99066.64
2023-04-05T21:51:25.810Z,99066.91
2023-04-05T22:01:33.381Z,99061.20
2023-04-05T22:11:40.361Z,99063.61
2023-04-05T22:21:47.828Z,99064.48
2023-04-05T22:31:54.506Z,99067.42
2023-04-05T22:42:01.967Z,99067.71
2023-04-05T22:52:09.007Z,99074.41
2023-04-05T23:02:16.413Z,99071.10
2023-04-05T23:12:23.930Z,99069.02
2023-04-05T23:22:31.182Z,99064.38
2023-04-05T23:32:38.173Z,99059.34
2023-04-05T23:42:45.500Z,99058.67
2023-04-05T23:52:52.556Z,99056.42
